logo
App data

Soldiers: Heroes of World War II

The player can take control of American, British, Russian, or German forces to play out battles that are set in World War II. The game is primarily a strategy game, but the player can take control of his or her forces and direct them with the keyboard and mouse for additional depth of control.
Store | Hub | SteamDB | Site
Developer: Best Way Publisher: 1C Entertainment
Genre: Strategy
Languages: English, French, German, Italian, Spanish - Spain, Russian
Tags: Strategy (42), World War II (20), RTS (12)
Category: Single-player, Multi-player, Co-op
Release date: Jul 3, 2014
Price: $4.99
Score rank: 49% Userscore: 79% Old userscore: 81% Metascore: 77%
Owners: 50,000 .. 100,000
Followers: 1,440
Peak concurrent players yesterday: 14
Playtime total: 03:20 (average) 00:27 (median)

Steam Spy is still in beta, so expect major bugs.

Owners data:

Access restricted.

This feature is only available to users with special access rights. Sorry.

If you want to proceed, you need to register or log in first and then back Steam Spy on Patreon. Look for Indie or Pro pledge.

Don't forget to use the same email as on Steam Spy!

Audience in 2 weeks:

Access restricted.

This feature is only available to users with special access rights. Sorry.

If you want to proceed, you need to register or log in first and then back Steam Spy on Patreon. Look for Indie or Pro pledge.

Don't forget to use the same email as on Steam Spy!

Peak daily concurrent players:

CCU data courtesy of SteamDB. Used with permission.

Hourly concurrent players:

Daily Twitch stats:

Hourly Twitch stats:

YouTube:

The views data is based on top 50 videos uploaded last week. Actual number of views might be more than the number shown.

The displayed number of videos uploaded yesterday is limited to 50, so if there were more videos uploaded, the number will still show 50.

If the game has commonly used word as its name (like "FEAR" or "Volume") its number of Youtube views might be wrong.

Games similar to this one:

# Game Release date
Price
Score rank
(Userscore / Metascore)
Owners
Players
Playtime (Median)
1 Hostile Waters: Antaeus Rising Jan 30, 2014 $2.9997% (97%/80%)200,000 .. 500,0000.11%08:18 (02:46)
2 War of the Human Tanks - ALTeR Feb 13, 2015 $12.9993% (95%)0 .. 20,0000%00:00 (00:00)
3 Garden Rescue Feb 2, 2015 $3.9990% (94%)100,000 .. 200,0000%00:00 (00:00)
4 Templar Battleforce Sep 21, 2015 $9.9990% (94%)20,000 .. 50,0002.86%04:04 (01:21)
5 Decisive Campaigns: Barbarossa Apr 29, 2016 $49.9987% (93%)0 .. 20,0000%00:00 (00:00)
6 Zeus + Poseidon Dec 15, 2016 $9.9984% (92%)50,000 .. 100,0000%00:00 (00:00)
7 Gary Grigsby's War in the East Jul 9, 2015 $79.9984% (92%)0 .. 20,0005.56%19:07 (06:22)
8 Frost Jul 5, 2016 $6.9984% (92%)0 .. 20,00017.65%01:20 (00:44)
9 Children of a Dead Earth Sep 23, 2016 $24.9980% (91%)0 .. 20,0007.69%00:01 (00:00)
10 Flashpoint Campaigns: Red Storm Player's Edition Oct 9, 2013 $49.9980% (91%)0 .. 20,0000%00:00 (00:00)
11 Battle Academy 2: Eastern Front Sep 12, 2014 $39.9977% (90%/78%)0 .. 20,0005.56%02:13 (00:44)
12 Kittypocalypse Aug 15, 2016 $14.9974% (89%)0 .. 20,00011.11%00:55 (00:18)
13 Kohan: Ahriman's Gift Aug 24, 2011 $9.99N/A (N/A/79%)0 .. 20,0000%00:00 (00:00)
14 Stalingrad Mar 25, 2015 $4.9969% (87%)20,000 .. 50,0001.19%00:04 (00:01)
15 Alien Robot Monsters Sep 9, 2015 $5.9966% (86%)0 .. 20,0000%00:00 (00:00)
16 Star Ruler Sep 20, 2010 $9.9966% (86%)100,000 .. 200,0000%00:00 (00:00)
17 Darknet Jun 8, 2017 $14.9966% (86%)0 .. 20,0000%00:00 (00:00)
18 MechoEcho May 18, 2016 $9.99N/A (N/A)0 .. 20,0000%00:00 (00:00)
19 NOBUNAGA'S AMBITION: Sphere of Influence Sep 1, 2015 $59.9959% (83%/70%)20,000 .. 50,00010.53%05:43 (03:48)
20 Advanced Tactics Gold Aug 15, 2014 $29.9959% (83%)0 .. 20,0000%00:00 (00:00)
21 Enemy Mar 17, 2015 $14.9956% (82%)0 .. 20,0000%00:00 (00:00)
22 Conflicks - Revolutionary Space Battles Nov 5, 2015 $6.9956% (82%/63%)0 .. 20,0000%00:00 (00:00)
23 Strategic Command WWII: War in Europe Jun 6, 2017 $39.9956% (82%)0 .. 20,0000%00:00 (00:00)
24 Lords of the Realm Dec 3, 2015 $1.99N/A (N/A)0 .. 20,0000%00:00 (00:00)
25 Radiant Defense Jul 11, 2014 $4.9954% (81%)0 .. 20,0000%00:00 (00:00)
26 Drive on Moscow Oct 27, 2016 $9.99N/A (N/A)0 .. 20,0000%00:00 (00:00)
27 War on Folvos Aug 8, 2014 $3.9952% (80%)50,000 .. 100,0000%00:00 (00:00)
28 Tank Warfare: Tunisia 1943 May 1, 2017 $39.9952% (80%)0 .. 20,0000%00:00 (00:00)
29 Stellar Monarch Dec 5, 2016 $19.9952% (80%)0 .. 20,0000%00:00 (00:00)
30 Hidden Dimensions 3 Oct 12, 2016 FreeN/A (N/A)0 .. 20,0000%00:00 (00:00)
31 Race for the Galaxy Jun 27, 2017 $6.9950% (79%)20,000 .. 50,0000%00:00 (00:00)
32 Defense Zone 3 Ultra HD Dec 14, 2016 $3.9948% (78%)20,000 .. 50,0000%00:00 (00:00)
33 Catch Me Sep 5, 2016 $5.9946% (77%)0 .. 20,0000%00:00 (00:00)
34 Zombie Riot May 25, 2017 $19.9946% (77%)0 .. 20,00025%01:21 (01:20)
35 Tank Battle: 1944 Mar 1, 2016 $9.99N/A (N/A)0 .. 20,0000%00:00 (00:00)
36 Machines At War 3 Jul 23, 2014 $14.99N/A (N/A)0 .. 20,0000%00:00 (00:00)
37 Star Hammer: The Vanguard Prophecy Jun 4, 2015 $19.9942% (75%/69%)0 .. 20,0000%00:00 (00:00)
38 Viking Saga: New World Nov 5, 2015 $3.99N/A (N/A)0 .. 20,0000%00:00 (00:00)
39 Special Tactics Apr 26, 2016 $4.99N/A (N/A)0 .. 20,0000%00:00 (00:00)
40 Attack Heroes Apr 27, 2017 $9.9936% (72%)0 .. 20,0000%00:00 (00:00)
41 Codex of Victory Mar 16, 2017 $14.9936% (72%)0 .. 20,0002.33%00:01 (00:00)
42 For The Glory: A Europa Universalis Game Nov 11, 2009 $2.4936% (72%)20,000 .. 50,0000%00:00 (00:00)
43 Pick a Hero Jun 9, 2016 $1.99N/A (N/A)0 .. 20,0000%00:00 (00:00)
44 Helldorado Apr 30, 2009 $9.9935% (71%/65%)20,000 .. 50,0000%00:00 (00:00)
45 Mosby's Confederacy Nov 19, 2008 $9.99N/A (N/A)0 .. 20,0000%00:00 (00:00)
46 Defect Jul 28, 2016 $5.9930% (68%)0 .. 20,0000%00:00 (00:00)
47 Little King's Story Aug 5, 2016 $19.9930% (68%/62%)0 .. 20,0004.55%01:46 (00:35)
48 APT Aug 27, 2015 $14.99N/A (N/A)0 .. 20,0000%00:00 (00:00)
49 Rooster Teeth vs. Zombiens Dec 19, 2014 N/A27% (66%)0 .. 20,0000%00:00 (00:00)
50 Winds Of Trade Feb 13, 2017 $11.9926% (65%)0 .. 20,0000%00:00 (00:00)
51 NOBUNAGA'S AMBITION: Tendou with Power Up Kit / 信長の野望・天道 with パワーアップキット Jun 25, 2015 $54.99N/A (N/A)0 .. 20,00025%00:24 (00:12)
52 Battle of the Bulge Sep 17, 2015 $9.9924% (64%)0 .. 20,0000%00:00 (00:00)
53 Business Tour - Board Game with Online Multiplayer Jul 27, 2017 Free24% (64%)1,000,000 .. 2,000,0005.25%02:12 (00:48)
54 Element TD Jan 20, 2017 $0.99N/A (N/A)0 .. 20,0000%00:00 (00:00)
55 SunAge: Battle for Elysium Dec 15, 2014 $14.9923% (63%)0 .. 20,0000%00:00 (00:00)
56 Beasts Battle Jun 15, 2016 $1.9923% (63%)20,000 .. 50,0001.72%01:00 (00:20)
57 Warhammer 40,000: Armageddon - Da Orks Aug 18, 2016 $19.99N/A (N/A)0 .. 20,0000%00:00 (00:00)
58 Spice Road Apr 24, 2014 $19.9922% (62%)0 .. 20,0000%00:00 (00:00)
59 Freight Tycoon Inc. Apr 3, 2014 $4.9922% (62%)20,000 .. 50,0000%00:00 (00:00)
60 Close Combat - Panthers in the Fog May 14, 2015 $39.9920% (60%)0 .. 20,0000%00:00 (00:00)
61 Ninja Cats vs Samurai Dogs Feb 21, 2014 $4.99N/A (N/A)0 .. 20,0000%00:00 (00:00)
62 Cuban Missile Crisis: Ice Crusade Mar 25, 2015 $4.99N/A (N/A)20,000 .. 50,0000%00:00 (00:00)
63 LA Cops Mar 13, 2015 $14.9919% (59%/45%)20,000 .. 50,0000%00:00 (00:00)
64 Check vs Mate Aug 16, 2012 $19.9919% (59%/69%)20,000 .. 50,0000%00:00 (00:00)
65 Gettysburg: The Tide Turns Jul 14, 2017 $9.99N/A (N/A)0 .. 20,0000%00:00 (00:00)
66 Dungeon Manager ZV Oct 16, 2015 $9.9917% (57%)0 .. 20,0000%00:00 (00:00)
67 Desert Law Mar 25, 2015 $2.99N/A (N/A)20,000 .. 50,0000%00:00 (00:00)
68 Life in Bunker Feb 25, 2016 $15.9916% (56%)0 .. 20,0000%00:00 (00:00)
69 reconquest Dec 16, 2016 $11.9915% (55%)0 .. 20,0000%00:00 (00:00)
70 Ant Queen Jun 17, 2016 $3.9913% (52%)0 .. 20,0000%00:00 (00:00)
71 Chronostorm: Siberian Border Nov 20, 2015 $0.99N/A (N/A)0 .. 20,0000%00:00 (00:00)
72 Steam Squad Jul 28, 2016 $17.9913% (52%)0 .. 20,0000%00:00 (00:00)
73 Cubesis Aug 22, 2014 $4.99N/A (N/A)0 .. 20,0000%00:00 (00:00)
74 Front Wars Aug 17, 2015 $6.9911% (50%)0 .. 20,0000%00:00 (00:00)
75 Star Traders: 4X Empires Dec 16, 2014 $9.9910% (48%)0 .. 20,0000%00:00 (00:00)
76 Storm over the Pacific Jun 13, 2014 $9.99N/A (N/A)0 .. 20,0000%00:00 (00:00)
77 ZAMB! Biomutant Extermination Jun 20, 2014 N/AN/A (N/A)0 .. 20,0000%00:00 (00:00)
78 Clockwork Empires Oct 26, 2016 $29.998% (44%/58%)20,000 .. 50,0000%00:00 (00:00)
79 Zombie Wars: Invasion Jan 14, 2016 $2.997% (42%)20,000 .. 50,00011.2%02:20 (02:08)
80 Rulers of Nations Jul 16, 2014 $19.997% (42%/63%)0 .. 20,0000%00:00 (00:00)
81 3D Chess Dec 6, 2016 $9.99N/A (N/A)0 .. 20,0000%00:00 (00:00)
82 Wars of Napoleon May 6, 2016 $39.997% (40%)0 .. 20,0000%00:00 (00:00)
83 Sim Junta Aug 18, 2015 $1.995% (35%)0 .. 20,0000%00:00 (00:00)
84 CTU: Counter Terrorism Unit Apr 22, 2016 $4.995% (34%)0 .. 20,0000%00:00 (00:00)
85 Power of Defense Aug 4, 2010 $9.99N/A (N/A)0 .. 20,0000%00:00 (00:00)
86 Direct Hit: Missile War Aug 7, 2014 $9.99N/A (N/A)0 .. 20,0000%00:00 (00:00)
87 Jurassic Island: The Dinosaur Zoo Nov 23, 2015 $3.991% (3%)0 .. 20,0000%00:00 (00:00)
88 Fray: Reloaded Edition Jun 19, 2012 N/AN/A (N/A/27%)0 .. 20,0000%00:00 (00:00)

Tags over time:

Access restricted.

This feature is only available to users with special access rights. Sorry.

If you want to proceed, you need to register or log in first and then back Steam Spy on Patreon. Look for Indie or Pro pledge.

Don't forget to use the same email as on Steam Spy!

Owners of this game also own:

Access restricted.

This feature is only available to users with special access rights. Sorry.

If you want to proceed, you need to register or log in first and then back Steam Spy on Patreon. Look for Indie or Pro pledge.

Don't forget to use the same email as on Steam Spy!

Playtime distribution:

Access restricted.

This feature is only available to users with special access rights. Sorry.

If you want to proceed, you need to register or log in first and then back Steam Spy on Patreon. Look for Indie or Pro pledge.

Don't forget to use the same email as on Steam Spy!

Playtime (2 weeks):

Access restricted.

This feature is only available to users with special access rights. Sorry.

If you want to proceed, you need to register or log in first and then back Steam Spy on Patreon. Look for Indie or Pro pledge.

Don't forget to use the same email as on Steam Spy!

User reviews:

Login required.

Please register or log in to see this information.